| time (UTC) | temp C | wind direction | speed KPH | gust KPH | rain 1hr cm | rain 24hr cm | rain mn cm | humidity % | barometer mb |
| 20260903074543 | 21 | 43 | 6.4 | 19.3 | 0.00 | 0.00 | 0.00 | 33 | 1014.8 |
| 20260903073047 | 21 | 302 | 4.8 | 12.9 | 0.00 | 0.00 | 0.00 | 33 | 1014.9 |
| 20260903071540 | 21 | 198 | 6.4 | 22.5 | 0.00 | 0.00 | 0.00 | 32 | 1014.8 |
| 20260903070039 | 20 | 127 | 4.8 | 17.7 | 0.00 | 0.00 | 0.00 | 34 | 1014.9 |
| 20260903064536 | 20 | 125 | 1.6 | 11.3 | 0.00 | 0.00 | 0.00 | 35 | 1014.9 |
| 20260903063034 | 21 | 317 | 4.8 | 14.5 | 0.00 | 0.00 | 0.00 | 31 | 1015.4 |
| 20260903061534 | 22 | 256 | 4.8 | 25.7 | 0.00 | 0.00 | 0.00 | 31 | 1015.5 |
| 20260903060029 | 22 | 315 | 4.8 | 17.7 | 0.00 | 0.00 | 0.00 | 32 | 1015.6 |
| 20260903054530 | 20 | 276 | 4.8 | 11.3 | 0.00 | 0.00 | 0.00 | 36 | 1015.7 |
| 20260903053029 | 20 | 24 | 1.6 | 16.1 | 0.00 | 0.00 | 0.00 | 35 | 1015.6 |
| 20260903051528 | 19 | 36 | 0.0 | 4.8 | 0.00 | 0.00 | 0.00 | 41 | 1015.7 |
| 20260903050026 | 18 | 327 | 0.0 | 4.8 | 0.00 | 0.00 | 0.00 | 44 | 1015.8 |
| 20260903044527 | 18 | 336 | 0.0 | 4.8 | 0.00 | 0.00 | 0.00 | 44 | 1015.8 |
| 20260903043026 | 19 | 32 | 3.2 | 6.4 | 0.00 | 0.00 | 0.00 | 43 | 1015.9 |
| 20260903041526 | 20 | 27 | 1.6 | 6.4 | 0.00 | 0.00 | 0.00 | 42 | 1016.0 |
| 20260903040028 | 20 | 26 | 1.6 | 3.2 | 0.00 | 0.00 | 0.00 | 41 | 1016.0 |
| 20260903034525 | 20 | 26 | 1.6 | 6.4 | 0.00 | 0.00 | 0.00 | 39 | 1016.1 |
| 20260903033024 | 21 | 17 | 1.6 | 4.8 | 0.00 | 0.00 | 0.00 | 35 | 1016.0 |
| 20260903031524 | 22 | 153 | 0.0 | 4.8 | 0.00 | 0.00 | 0.00 | 29 | 1016.0 |
| 20260903030029 | 23 | 276 | 1.6 | 6.4 | 0.00 | 0.00 | 0.00 | 28 | 1015.3 |
| 20260903024523 | 23 | 261 | 3.2 | 8.0 | 0.00 | 0.00 | 0.00 | 27 | 1015.2 |
| 20260903023022 | 23 | 267 | 3.2 | 11.3 | 0.00 | 0.00 | 0.00 | 27 | 1015.1 |
| 20260903021523 | 23 | 242 | 3.2 | 6.4 | 0.00 | 0.00 | 0.00 | 28 | 1014.9 |
| 20260903020035 | 22 | 223 | 1.6 | 8.0 | 0.00 | 0.00 | 0.00 | 28 | 1014.5 |
| 20260903014524 | 22 | 257 | 0.0 | 3.2 | 0.00 | 0.00 | 0.00 | 29 | 1014.5 |
| 20260903013020 | 22 | 268 | 0.0 | 3.2 | 0.00 | 0.00 | 0.00 | 30 | 1014.4 |
| 20260903011521 | 23 | 136 | 0.0 | 1.6 | 0.00 | 0.00 | 0.00 | 29 | 1014.4 |
| 20260903010020 | 24 | 125 | 1.6 | 4.8 | 0.00 | 0.00 | 0.00 | 27 | 1014.5 |
| 20260903004519 | 25 | 132 | 1.6 | 8.0 | 0.00 | 0.00 | 0.00 | 25 | 1014.5 |
| 20260903003019 | 25 | 119 | 0.0 | 3.2 | 0.00 | 0.00 | 0.00 | 25 | 1014.5 |
| 20260903001519 | 26 | 113 | 1.6 | 11.3 | 0.00 | 0.00 | 0.00 | 24 | 1014.1 |
| 20260903000018 | 26 | 119 | 3.2 | 11.3 | 0.00 | 0.00 | 0.00 | 23 | 1014.2 |
| 20260902234517 | 26 | 115 | 1.6 | 9.7 | 0.00 | 0.00 | 0.00 | 25 | 1014.4 |
| 20260902233017 | 26 | 132 | 1.6 | 6.4 | 0.00 | 0.00 | 0.00 | 25 | 1014.5 |
| 20260902231516 | 26 | 115 | 0.0 | 4.8 | 0.00 | 0.00 | 0.00 | 25 | 1014.5 |
| 20260902230017 | 26 | 116 | 1.6 | 8.0 | 0.00 | 0.00 | 0.00 | 25 | 1014.5 |
| 20260902224516 | 26 | 140 | 0.0 | 8.0 | 0.00 | 0.00 | 0.00 | 25 | 1014.6 |
| 20260902223021 | 26 | 126 | 1.6 | 9.7 | 0.00 | 0.00 | 0.00 | 25 | 1014.8 |
| 20260902221519 | 26 | 132 | 1.6 | 9.7 | 0.00 | 0.00 | 0.00 | 25 | 1014.9 |
| 20260902220012 | 27 | 192 | 1.6 | 12.9 | 0.00 | 0.00 | 0.00 | 24 | 1015.1 |
| 20260902214512 | 27 | 153 | 3.2 | 12.9 | 0.00 | 0.00 | 0.00 | 24 | 1015.2 |
| 20260902213011 | 27 | 136 | 6.4 | 11.3 | 0.00 | 0.00 | 0.00 | 24 | 1015.3 |
| 20260902211517 | 27 | 104 | 6.4 | 17.7 | 0.00 | 0.00 | 0.00 | 25 | 1015.6 |
| 20260902210010 | 27 | 119 | 6.4 | 19.3 | 0.00 | 0.00 | 0.00 | 25 | 1015.9 |
| 20260902204517 | 28 | 109 | 6.4 | 16.1 | 0.00 | 0.00 | 0.00 | 25 | 1016.1 |
| 20260902203010 | 28 | 112 | 9.7 | 17.7 | 0.00 | 0.00 | 0.00 | 24 | 1016.5 |
| 20260902201507 | 27 | 125 | 8.0 | 20.9 | 0.00 | 0.00 | 0.00 | 25 | 1016.8 |
| 20260902200006 | 27 | 105 | 6.4 | 16.1 | 0.00 | 0.00 | 0.00 | 25 | 1016.9 |
| 20260902194505 | 27 | 148 | 9.7 | 24.1 | 0.00 | 0.00 | 0.00 | 25 | 1017.0 |
| 20260902193005 | 27 | 105 | 6.4 | 17.7 | 0.00 | 0.00 | 0.00 | 26 | 1017.3 |
| 20260902191505 | 27 | 134 | 4.8 | 20.9 | 0.00 | 0.00 | 0.00 | 26 | 1017.5 |
| 20260902190006 | 28 | 206 | 3.2 | 14.5 | 0.00 | 0.00 | 0.00 | 25 | 1017.6 |
| 20260902184602 | 27 | 57 | 3.2 | 14.5 | 0.00 | 0.00 | 0.00 | 27 | 1018.2 |
| 20260902183109 | 26 | 149 | 1.6 | 17.7 | 0.00 | 0.00 | 0.00 | 27 | 1018.3 |
| 20260902181602 | 25 | 126 | 8.0 | 17.7 | 0.00 | 0.00 | 0.00 | 28 | 1018.5 |
| 20260902180054 | 26 | 126 | 4.8 | 16.1 | 0.00 | 0.00 | 0.00 | 28 | 1018.8 |
| 20260902174557 | 25 | 112 | 6.4 | 16.1 | 0.00 | 0.00 | 0.00 | 29 | 1019.1 |
| 20260902173058 | 25 | 136 | 3.2 | 14.5 | 0.00 | 0.00 | 0.00 | 29 | 1019.2 |
| 20260902171549 | 25 | 126 | 6.4 | 16.1 | 0.00 | 0.00 | 0.00 | 28 | 1019.4 |
| 20260902170052 | 25 | 119 | 4.8 | 16.1 | 0.00 | 0.00 | 0.00 | 29 | 1019.6 |
| 20260902164544 | 24 | 115 | 1.6 | 14.5 | 0.00 | 0.00 | 0.00 | 30 | 1019.7 |
| 20260902163045 | 23 | 272 | 8.0 | 22.5 | 0.00 | 0.00 | 0.00 | 31 | 1019.6 |
| 20260902161543 | 23 | 273 | 3.2 | 16.1 | 0.00 | 0.00 | 0.00 | 31 | 1019.8 |
| 20260902160046 | 23 | 292 | 0.0 | 6.4 | 0.00 | 0.00 | 0.00 | 31 | 1020.1 |
| 20260902154541 | 23 | 290 | 3.2 | 16.1 | 0.00 | 0.00 | 0.00 | 31 | 1020.1 |
| 20260902153051 | 22 | 24 | 3.2 | 19.3 | 0.00 | 0.00 | 0.00 | 32 | 1020.4 |
| 20260902151538 | 22 | 299 | 0.0 | 16.1 | 0.00 | 0.00 | 0.00 | 32 | 1020.5 |
| 20260902150035 | 22 | 31 | 9.7 | 19.3 | 0.00 | 0.00 | 0.00 | 32 | 1020.1 |
| 20260902144533 | 21 | 324 | 14.5 | 32.2 | 0.00 | 0.00 | 0.00 | 32 | 1020.1 |
| 20260902143030 | 21 | 304 | 6.4 | 24.1 | 0.00 | 0.00 | 0.00 | 33 | 1020.1 |
| 20260902141529 | 21 | 315 | 9.7 | 29.0 | 0.00 | 0.00 | 0.00 | 32 | 1020.2 |
| 20260902140028 | 21 | 277 | 11.3 | 30.6 | 0.00 | 0.00 | 0.00 | 31 | 1020.1 |
| 20260902134526 | 20 | 281 | 14.5 | 27.4 | 0.00 | 0.00 | 0.00 | 31 | 1019.8 |
| 20260902133028 | 20 | 307 | 14.5 | 33.8 | 0.00 | 0.00 | 0.00 | 32 | 1019.8 |
| 20260902131523 | 20 | 11 | 19.3 | 35.4 | 0.00 | 0.00 | 0.00 | 33 | 1019.8 |
| 20260902130023 | 20 | 279 | 12.9 | 35.4 | 0.00 | 0.00 | 0.00 | 34 | 1019.4 |
| 20260902124522 | 20 | 328 | 14.5 | 41.8 | 0.00 | 0.00 | 0.00 | 34 | 1019.3 |
| 20260902123021 | 20 | 304 | 16.1 | 38.6 | 0.00 | 0.00 | 0.00 | 34 | 1019.4 |
| 20260902121520 | 20 | 324 | 14.5 | 37.0 | 0.00 | 0.00 | 0.00 | 33 | 1019.3 |
| 20260902120019 | 20 | 309 | 16.1 | 33.8 | 0.00 | 0.00 | 0.00 | 32 | 1019.0 |
| 20260902114519 | 20 | 295 | 16.1 | 38.6 | 0.00 | 0.00 | 0.00 | 32 | 1018.9 |
| 20260902113020 | 20 | 284 | 14.5 | 30.6 | 0.00 | 0.00 | 0.00 | 32 | 1018.9 |
| 20260902111520 | 20 | 290 | 16.1 | 40.2 | 0.00 | 0.00 | 0.00 | 33 | 1018.9 |
| 20260902110034 | 20 | 283 | 16.1 | 45.1 | 0.00 | 0.00 | 0.00 | 33 | 1019.0 |
| 20260902104532 | 20 | 288 | 12.9 | 41.8 | 0.00 | 0.00 | 0.00 | 35 | 1019.0 |
| 20260902103031 | 20 | 271 | 12.9 | 37.0 | 0.00 | 0.00 | 0.00 | 35 | 1019.0 |
| 20260902101514 | 20 | 254 | 11.3 | 33.8 | 0.00 | 0.00 | 0.00 | 37 | 1019.0 |
| 20260902100013 | 20 | 298 | 9.7 | 22.5 | 0.00 | 0.00 | 0.00 | 39 | 1019.5 |
| 20260902094509 | 19 | 330 | 6.4 | 27.4 | 0.00 | 0.00 | 0.00 | 41 | 1019.4 |
| 20260902093004 | 16 | 267 | 3.2 | 14.5 | 0.00 | 0.00 | 0.00 | 51 | 1019.4 |
| 20260902091504 | 15 | 105 | 0.0 | 1.6 | 0.00 | 0.00 | 0.00 | 73 | 1019.5 |
| 20260902090006 | 15 | 281 | 0.0 | 1.6 | 0.00 | 0.00 | 0.00 | 74 | 1019.7 |
| 20260902084602 | 15 | 281 | 0.0 | 0.0 | 0.00 | 0.00 | 0.00 | 73 | 1019.8 |
| 20260902083059 | 15 | 281 | 0.0 | 1.6 | 0.00 | 0.00 | 0.00 | 70 | 1019.7 |
| 20260902081557 | 15 | 281 | 0.0 | 1.6 | 0.00 | 0.00 | 0.00 | 72 | 1019.8 |
| 20260902080056 | 15 | 281 | 0.0 | 1.6 | 0.00 | 0.00 | 0.00 | 70 | 1019.9 |